createdAt,value
2023-05-19T00:00:12.393Z,8165.00
2023-05-19T00:01:12.422Z,8109.00
2023-05-19T00:02:12.564Z,8042.00
2023-05-19T00:03:12.614Z,8079.00
2023-05-19T00:04:12.571Z,8153.00
2023-05-19T00:05:12.613Z,8214.00
2023-05-19T00:06:12.688Z,8216.00
2023-05-19T00:07:12.669Z,8074.00
2023-05-19T00:08:12.671Z,8016.00
2023-05-19T00:09:12.748Z,7977.00
2023-05-19T00:10:12.707Z,7855.00
2023-05-19T00:11:12.749Z,7835.00
2023-05-19T00:12:12.763Z,7903.00
2023-05-19T00:13:12.781Z,7988.00
2023-05-19T00:14:12.821Z,7977.00
2023-05-19T00:15:12.806Z,8033.00
2023-05-19T00:16:12.888Z,8167.00
2023-05-19T00:17:12.900Z,8343.00
2023-05-19T00:18:12.923Z,8304.00
2023-05-19T00:19:12.949Z,8289.00
2023-05-19T00:20:12.956Z,8315.00
2023-05-19T00:21:12.976Z,8285.00
2023-05-19T00:22:13.073Z,8339.00
2023-05-19T00:23:13.143Z,8395.00
2023-05-19T00:24:13.171Z,8494.00
2023-05-19T00:25:13.191Z,8582.00
2023-05-19T00:26:13.240Z,8433.00
2023-05-19T00:27:13.332Z,8497.00
2023-05-19T00:28:13.300Z,8465.00
2023-05-19T00:29:13.402Z,8491.00
2023-05-19T00:30:13.359Z,8563.00
2023-05-19T00:31:13.419Z,8543.00
2023-05-19T00:32:13.518Z,8508.00
2023-05-19T00:33:13.426Z,8586.00
2023-05-19T00:34:13.420Z,8638.00
2023-05-19T00:35:13.484Z,8601.00
2023-05-19T00:36:13.486Z,8491.00
2023-05-19T00:37:13.495Z,8407.00
2023-05-19T00:38:13.493Z,8511.00
2023-05-19T00:39:13.511Z,8493.00
2023-05-19T00:40:13.526Z,8526.00
2023-05-19T00:41:13.511Z,8633.00
2023-05-19T00:42:13.556Z,8817.00
2023-05-19T00:43:13.587Z,8838.00
2023-05-19T00:44:13.624Z,8634.00
2023-05-19T00:45:13.691Z,8609.00
2023-05-19T00:46:13.692Z,8695.00
2023-05-19T00:47:13.670Z,8822.00
2023-05-19T00:48:13.674Z,8874.00
2023-05-19T00:49:13.673Z,8785.00
2023-05-19T00:50:13.737Z,8681.00
2023-05-19T00:51:13.775Z,8621.00
2023-05-19T00:52:13.758Z,8602.00
2023-05-19T00:53:13.792Z,8592.00
2023-05-19T00:54:13.787Z,8874.00
2023-05-19T00:55:13.815Z,9098.00
2023-05-19T00:56:13.833Z,9026.00
2023-05-19T00:57:13.864Z,8952.00
2023-05-19T00:58:13.843Z,8963.00
2023-05-19T00:59:13.876Z,9028.00
2023-05-19T01:00:13.906Z,8987.00
2023-05-19T01:01:13.970Z,9004.00
2023-05-19T01:02:13.956Z,9077.00
2023-05-19T01:03:14.118Z,9025.00
2023-05-19T01:04:14.010Z,8984.00
2023-05-19T01:05:14.058Z,9031.00
2023-05-19T01:06:14.058Z,9119.00
2023-05-19T01:07:14.108Z,9146.00
2023-05-19T01:08:14.153Z,9158.00
2023-05-19T01:09:14.102Z,9151.00
2023-05-19T01:10:14.162Z,9194.00
2023-05-19T01:11:14.156Z,9215.00
2023-05-19T01:12:14.210Z,9137.00
2023-05-19T01:13:14.299Z,9121.00
2023-05-19T01:14:14.291Z,9119.00
2023-05-19T01:15:14.294Z,9136.00
2023-05-19T01:16:14.341Z,9077.00
2023-05-19T01:17:14.306Z,9081.00
2023-05-19T01:18:14.367Z,9069.00
2023-05-19T01:19:14.375Z,9141.00
2023-05-19T01:20:14.354Z,9142.00
2023-05-19T01:21:14.358Z,9171.00
2023-05-19T01:22:14.367Z,9135.00
2023-05-19T01:23:14.368Z,9152.00
2023-05-19T01:24:14.412Z,9148.00
2023-05-19T01:25:14.393Z,9183.00
2023-05-19T01:26:14.436Z,9236.00
2023-05-19T01:27:14.420Z,9249.00
2023-05-19T01:28:14.426Z,9280.00
2023-05-19T01:29:14.437Z,9286.00
2023-05-19T01:30:14.448Z,9215.00
2023-05-19T01:31:14.454Z,9189.00
2023-05-19T01:32:14.519Z,9244.00
2023-05-19T01:33:14.588Z,9221.00
2023-05-19T01:34:14.526Z,9135.00
2023-05-19T01:35:14.512Z,9056.00
2023-05-19T01:36:14.542Z,9056.00
2023-05-19T01:37:14.538Z,9048.00
2023-05-19T01:38:14.584Z,9130.00
2023-05-19T01:39:14.572Z,9192.00
2023-05-19T01:40:14.589Z,9204.00
2023-05-19T01:41:14.570Z,9127.00
2023-05-19T01:42:14.621Z,9090.00
2023-05-19T01:43:14.612Z,9055.00
2023-05-19T01:44:14.650Z,8999.00
2023-05-19T01:45:14.647Z,9027.00
2023-05-19T01:46:14.673Z,9051.00
2023-05-19T01:47:14.699Z,9032.00
2023-05-19T01:48:14.763Z,9040.00
2023-05-19T01:49:14.716Z,9009.00
2023-05-19T01:50:14.716Z,8965.00
2023-05-19T01:51:14.733Z,8952.00
2023-05-19T01:52:14.738Z,8978.00
2023-05-19T01:53:14.750Z,9028.00
2023-05-19T01:54:14.781Z,9058.00
2023-05-19T01:55:14.791Z,9095.00
2023-05-19T01:56:14.796Z,9052.00
2023-05-19T01:57:14.816Z,9231.00
2023-05-19T01:58:14.843Z,9371.00
2023-05-19T01:59:14.840Z,9477.00
2023-05-19T02:00:14.845Z,9554.00
2023-05-19T02:01:14.910Z,9586.00
2023-05-19T02:02:14.920Z,9530.00
2023-05-19T02:03:14.943Z,9616.00
2023-05-19T02:04:15.023Z,9618.00
2023-05-19T02:05:15.019Z,9674.00
2023-05-19T02:06:15.060Z,9784.00
2023-05-19T02:07:15.081Z,9801.00
2023-05-19T02:08:15.119Z,9849.00
2023-05-19T02:09:15.186Z,9919.00
2023-05-19T02:10:15.232Z,9836.00
2023-05-19T02:11:15.253Z,9867.00
2023-05-19T02:12:15.299Z,9785.00
2023-05-19T02:13:15.305Z,9832.00
2023-05-19T02:14:15.334Z,9898.00
2023-05-19T02:15:15.394Z,9808.00
2023-05-19T02:16:15.502Z,9753.00
2023-05-19T02:17:15.496Z,9717.00
2023-05-19T02:18:15.556Z,9756.00
2023-05-19T02:19:15.628Z,9796.00
2023-05-19T02:20:15.620Z,9859.00
2023-05-19T02:21:15.658Z,9826.00
2023-05-19T02:22:15.683Z,9845.00
2023-05-19T02:23:15.702Z,9841.00
2023-05-19T02:24:15.765Z,9932.00
2023-05-19T02:25:15.798Z,9989.00
2023-05-19T02:26:15.816Z,9960.00
2023-05-19T02:27:15.842Z,9936.00
2023-05-19T02:28:16.532Z,9999.00
2023-05-19T02:29:15.891Z,10003.00
2023-05-19T02:30:15.935Z,9958.00
2023-05-19T02:31:15.923Z,9950.00
2023-05-19T02:32:15.981Z,9920.00
2023-05-19T02:33:15.981Z,9930.00
2023-05-19T02:34:16.031Z,9909.00
2023-05-19T02:35:16.050Z,9866.00
2023-05-19T02:36:16.052Z,9812.00
2023-05-19T02:37:16.083Z,9836.00
2023-05-19T02:38:16.067Z,9874.00
2023-05-19T02:39:16.078Z,9699.00
2023-05-19T02:40:16.153Z,9596.00
2023-05-19T02:41:16.113Z,9475.00
2023-05-19T02:42:16.163Z,9515.00
2023-05-19T02:43:16.171Z,9544.00
2023-05-19T02:44:16.208Z,9571.00
2023-05-19T02:45:16.237Z,9519.00
2023-05-19T02:46:16.306Z,9534.00
2023-05-19T02:47:16.303Z,9388.00
2023-05-19T02:48:16.368Z,9204.00
2023-05-19T02:49:16.371Z,9217.00
2023-05-19T02:50:16.410Z,9370.00
2023-05-19T02:51:16.495Z,9517.00
2023-05-19T02:52:16.456Z,9577.00
2023-05-19T02:53:16.453Z,9560.00
2023-05-19T02:54:16.471Z,9504.00
2023-05-19T02:55:16.510Z,9505.00
2023-05-19T02:56:16.516Z,9597.00
2023-05-19T02:57:16.557Z,9449.00
2023-05-19T02:58:16.608Z,9330.00
2023-05-19T02:59:16.608Z,9411.00
2023-05-19T03:00:16.653Z,9544.00
2023-05-19T03:01:16.788Z,9597.00
2023-05-19T03:02:16.714Z,9610.00
2023-05-19T03:03:16.804Z,9595.00
2023-05-19T03:04:16.706Z,9516.00
2023-05-19T03:05:16.769Z,9458.00
2023-05-19T03:06:16.751Z,9615.00
2023-05-19T03:07:16.772Z,9691.00
2023-05-19T03:08:16.777Z,9635.00
2023-05-19T03:09:16.810Z,9534.00
2023-05-19T03:10:16.865Z,9427.00
2023-05-19T03:11:16.839Z,9365.00
2023-05-19T03:12:16.874Z,9355.00
2023-05-19T03:13:17.000Z,9328.00
2023-05-19T03:14:16.918Z,9385.00
2023-05-19T03:15:16.951Z,9442.00
2023-05-19T03:16:16.937Z,9376.00
2023-05-19T03:17:17.018Z,9394.00
2023-05-19T03:18:17.015Z,9476.00
2023-05-19T03:19:17.044Z,9576.00
2023-05-19T03:20:16.979Z,9542.00
2023-05-19T03:21:17.031Z,9524.00
2023-05-19T03:22:17.057Z,9614.00
2023-05-19T03:23:17.077Z,9609.00
2023-05-19T03:24:17.072Z,9590.00
2023-05-19T03:25:17.102Z,9611.00
2023-05-19T03:26:17.212Z,9593.00
2023-05-19T03:27:17.147Z,9606.00
2023-05-19T03:28:17.252Z,9719.00
2023-05-19T03:29:17.207Z,9780.00
2023-05-19T03:30:17.198Z,9792.00
2023-05-19T03:31:17.244Z,9865.00
2023-05-19T03:32:17.292Z,9876.00
2023-05-19T03:33:17.310Z,9915.00
2023-05-19T03:34:17.989Z,9923.00
2023-05-19T03:35:17.271Z,9783.00
2023-05-19T03:36:17.317Z,9753.00
2023-05-19T03:37:17.324Z,9813.00
2023-05-19T03:38:17.372Z,9875.00
2023-05-19T03:39:17.447Z,9970.00
2023-05-19T03:40:17.444Z,10085.00
2023-05-19T03:41:17.448Z,10115.00
2023-05-19T03:42:17.506Z,10040.00
2023-05-19T03:43:17.520Z,9923.00
2023-05-19T03:44:17.531Z,9819.00
2023-05-19T03:45:17.572Z,9649.00
2023-05-19T03:46:17.694Z,9439.00
2023-05-19T03:47:17.664Z,9475.00
2023-05-19T03:48:20.367Z,9550.00
2023-05-19T03:49:17.733Z,9614.00
2023-05-19T03:50:17.720Z,9621.00
2023-05-19T03:51:17.716Z,9719.00
2023-05-19T03:52:17.652Z,9751.00
2023-05-19T03:53:17.697Z,9746.00
2023-05-19T03:54:17.677Z,10007.00
2023-05-19T03:55:17.640Z,10255.00
2023-05-19T03:56:17.651Z,10096.00
2023-05-19T03:57:17.724Z,9916.00
2023-05-19T03:58:17.615Z,9654.00
2023-05-19T03:59:17.634Z,9551.00
2023-05-19T04:00:17.603Z,9547.00
2023-05-19T04:01:17.605Z,9424.00
2023-05-19T04:02:17.606Z,9375.00
2023-05-19T04:03:17.774Z,9363.00
2023-05-19T04:04:17.672Z,9341.00
2023-05-19T04:05:17.582Z,9269.00
2023-05-19T04:06:17.604Z,9293.00
2023-05-19T04:07:17.568Z,9341.00
2023-05-19T04:08:17.564Z,9356.00
2023-05-19T04:09:17.593Z,9414.00
2023-05-19T04:10:17.573Z,9438.00
2023-05-19T04:11:17.538Z,9618.00
2023-05-19T04:12:17.547Z,9757.00
2023-05-19T04:13:17.524Z,9632.00
2023-05-19T04:14:17.513Z,9477.00
2023-05-19T04:15:17.499Z,9432.00
2023-05-19T04:16:17.599Z,9510.00
2023-05-19T04:17:17.524Z,9476.00
2023-05-19T04:18:17.516Z,9307.00
2023-05-19T04:19:17.826Z,9248.00
2023-05-19T04:20:17.487Z,9260.00
2023-05-19T04:21:17.475Z,9234.00
2023-05-19T04:22:17.511Z,9386.00
2023-05-19T04:23:17.443Z,9365.00
2023-05-19T04:24:17.445Z,9169.00
2023-05-19T04:25:17.463Z,9000.00
2023-05-19T04:26:17.421Z,9048.00
2023-05-19T04:27:17.427Z,8828.00
2023-05-19T04:28:17.400Z,8632.00
2023-05-19T04:29:17.447Z,8612.00
2023-05-19T04:30:18.583Z,8667.00
2023-05-19T04:31:17.424Z,8700.00
2023-05-19T04:32:17.458Z,8909.00
2023-05-19T04:33:17.383Z,9051.00
2023-05-19T04:34:17.383Z,9214.00
2023-05-19T04:35:17.379Z,9289.00
2023-05-19T04:36:17.361Z,9079.00
2023-05-19T04:37:17.353Z,8867.00
2023-05-19T04:38:17.378Z,8764.00
2023-05-19T04:39:17.333Z,8927.00
2023-05-19T04:40:17.342Z,8998.00
2023-05-19T04:41:17.352Z,9019.00
2023-05-19T04:42:17.309Z,9154.00
2023-05-19T04:43:17.328Z,9555.00
2023-05-19T04:44:17.338Z,9369.00
2023-05-19T04:45:17.292Z,9167.00
2023-05-19T04:46:17.329Z,9068.00
2023-05-19T04:47:17.287Z,9242.00
2023-05-19T04:48:17.302Z,9419.00
2023-05-19T04:49:17.371Z,9478.00
2023-05-19T04:50:17.373Z,9313.00
2023-05-19T04:51:17.379Z,9133.00
2023-05-19T04:52:17.425Z,9208.00
2023-05-19T04:53:17.458Z,9341.00
2023-05-19T04:54:17.501Z,9402.00
2023-05-19T04:55:17.533Z,9432.00
2023-05-19T04:56:17.517Z,9440.00
2023-05-19T04:57:17.513Z,9529.00
2023-05-19T04:58:17.569Z,9688.00
2023-05-19T04:59:17.567Z,9823.00
2023-05-19T05:00:17.605Z,9867.00
2023-05-19T05:01:17.764Z,9858.00
2023-05-19T05:02:17.708Z,9896.00
2023-05-19T05:03:17.883Z,9980.00
2023-05-19T05:04:17.786Z,10062.00
2023-05-19T05:05:17.810Z,10019.00
2023-05-19T05:06:17.804Z,9868.00
2023-05-19T05:07:17.816Z,9838.00
2023-05-19T05:08:17.881Z,9725.00
2023-05-19T05:09:17.873Z,9616.00
2023-05-19T05:10:17.897Z,9665.00
2023-05-19T05:11:18.023Z,9645.00
2023-05-19T05:12:18.021Z,9725.00
2023-05-19T05:13:18.063Z,9757.00
2023-05-19T05:14:18.068Z,9858.00
2023-05-19T05:15:18.093Z,9922.00
2023-05-19T05:16:18.116Z,9985.00
2023-05-19T05:17:18.102Z,9968.00
2023-05-19T05:18:18.099Z,9795.00
2023-05-19T05:19:18.143Z,9768.00
2023-05-19T05:20:18.197Z,9926.00
2023-05-19T05:21:18.220Z,9627.00
2023-05-19T05:22:18.238Z,9287.00
2023-05-19T05:23:18.244Z,9217.00
2023-05-19T05:24:18.243Z,9163.00
2023-05-19T05:25:18.314Z,9190.00
2023-05-19T05:26:18.360Z,9301.00
2023-05-19T05:27:18.344Z,9509.00
2023-05-19T05:28:18.362Z,9764.00
2023-05-19T05:29:18.386Z,9787.00
2023-05-19T05:30:18.394Z,9819.00
2023-05-19T05:31:18.469Z,9742.00
2023-05-19T05:32:18.547Z,9698.00
2023-05-19T05:33:18.711Z,9590.00
2023-05-19T05:34:18.559Z,9328.00
2023-05-19T05:35:18.574Z,9360.00
2023-05-19T05:36:18.534Z,9419.00
2023-05-19T05:37:18.575Z,9303.00
2023-05-19T05:38:18.649Z,9208.00
2023-05-19T05:39:18.649Z,9147.00
2023-05-19T05:40:18.657Z,9097.00
2023-05-19T05:41:18.715Z,9003.00
2023-05-19T05:42:18.770Z,8933.00
2023-05-19T05:43:18.757Z,8747.00
2023-05-19T05:44:18.766Z,8586.00
2023-05-19T05:45:18.824Z,8496.00
2023-05-19T05:46:18.892Z,8509.00
2023-05-19T05:47:18.899Z,8525.00
2023-05-19T05:48:18.913Z,8481.00
2023-05-19T05:49:18.970Z,8507.00
2023-05-19T05:50:19.023Z,8630.00
2023-05-19T05:51:19.052Z,8622.00
2023-05-19T05:52:19.020Z,8654.00
2023-05-19T05:53:19.046Z,8642.00
2023-05-19T05:54:19.104Z,8438.00
2023-05-19T05:55:19.113Z,8441.00
2023-05-19T05:56:19.164Z,8351.00
2023-05-19T05:57:19.218Z,8342.00
2023-05-19T05:58:19.226Z,8404.00
2023-05-19T05:59:19.274Z,8173.00
2023-05-19T06:00:19.354Z,8225.00
2023-05-19T06:01:19.389Z,8545.00
2023-05-19T06:02:19.440Z,8460.00
2023-05-19T06:03:19.541Z,8366.00
2023-05-19T06:04:19.526Z,8109.00
2023-05-19T06:05:19.585Z,8130.00
2023-05-19T06:06:19.548Z,8197.00
2023-05-19T06:07:19.602Z,7925.00
2023-05-19T06:08:19.596Z,7860.00
2023-05-19T06:09:19.612Z,7523.00
2023-05-19T06:10:19.616Z,7339.00
2023-05-19T06:11:19.644Z,7249.00
2023-05-19T06:12:19.723Z,7386.00
2023-05-19T06:13:19.793Z,7637.00
2023-05-19T06:14:19.848Z,7393.00
2023-05-19T06:15:19.847Z,7678.00
2023-05-19T06:16:19.878Z,7712.00
2023-05-19T06:17:19.921Z,7491.00
2023-05-19T06:18:19.982Z,7122.00
2023-05-19T06:19:20.047Z,6987.00
2023-05-19T06:20:20.039Z,7128.00
2023-05-19T06:21:20.026Z,7016.00
2023-05-19T06:22:20.066Z,6892.00
2023-05-19T06:23:20.107Z,6764.00
2023-05-19T06:24:20.164Z,6744.00
2023-05-19T06:25:20.189Z,6674.00
2023-05-19T06:26:20.214Z,6508.00
2023-05-19T06:27:20.307Z,6748.00
2023-05-19T06:28:20.312Z,6748.00
2023-05-19T06:29:20.388Z,6763.00
2023-05-19T06:30:20.407Z,6854.00
2023-05-19T06:31:20.479Z,7047.00
2023-05-19T06:32:20.491Z,7063.00
2023-05-19T06:33:20.519Z,7007.00
2023-05-19T06:34:20.559Z,6638.00
2023-05-19T06:35:20.534Z,6473.00
2023-05-19T06:36:20.593Z,6693.00
2023-05-19T06:37:20.616Z,6759.00
2023-05-19T06:38:20.595Z,6917.00
2023-05-19T06:39:20.670Z,7156.00
2023-05-19T06:40:20.727Z,6862.00
2023-05-19T06:41:20.767Z,6774.00
2023-05-19T06:42:20.856Z,6738.00
2023-05-19T06:43:20.836Z,6815.00
2023-05-19T06:44:21.228Z,6845.00
2023-05-19T06:45:20.900Z,6609.00
2023-05-19T06:46:20.996Z,6329.00
2023-05-19T06:47:20.972Z,6132.00
2023-05-19T06:48:20.970Z,6041.00
2023-05-19T06:49:21.016Z,5976.00
2023-05-19T06:50:21.038Z,5800.00
2023-05-19T06:51:21.100Z,5653.00
2023-05-19T06:52:21.125Z,5499.00
2023-05-19T06:53:21.156Z,5617.00
2023-05-19T06:54:21.154Z,5729.00
2023-05-19T06:55:21.204Z,5837.00
2023-05-19T06:56:21.273Z,5828.00
2023-05-19T06:57:21.259Z,5828.00
2023-05-19T06:58:21.298Z,5921.00
2023-05-19T06:59:21.300Z,5875.00
2023-05-19T07:00:23.091Z,6139.00
2023-05-19T07:01:21.394Z,6224.00
2023-05-19T07:02:21.381Z,6184.00
2023-05-19T07:03:21.422Z,6094.00
2023-05-19T07:04:21.333Z,6191.00
2023-05-19T07:05:21.332Z,5935.00
2023-05-19T07:06:21.333Z,5881.00
2023-05-19T07:07:21.353Z,5807.00
2023-05-19T07:08:21.328Z,5904.00
2023-05-19T07:09:21.338Z,5966.00
2023-05-19T07:10:21.275Z,6151.00
2023-05-19T07:11:21.290Z,6022.00
2023-05-19T07:12:21.321Z,5999.00
2023-05-19T07:13:21.291Z,5798.00
2023-05-19T07:14:21.262Z,5586.00
2023-05-19T07:15:21.291Z,5572.00
2023-05-19T07:16:21.284Z,5521.00
2023-05-19T07:17:21.259Z,5538.00
2023-05-19T07:18:21.269Z,5474.00
2023-05-19T07:19:21.400Z,5516.00
2023-05-19T07:20:21.234Z,5363.00
2023-05-19T07:21:21.237Z,5288.00
2023-05-19T07:22:21.216Z,5139.00
2023-05-19T07:23:21.234Z,5062.00
2023-05-19T07:24:21.216Z,5710.00
2023-05-19T07:25:21.203Z,6160.00
2023-05-19T07:26:21.184Z,5790.00
2023-05-19T07:27:21.196Z,5251.00
2023-05-19T07:28:21.205Z,5263.00
2023-05-19T07:29:21.179Z,5209.00
2023-05-19T07:30:21.186Z,5423.00
2023-05-19T07:31:21.204Z,5720.00
2023-05-19T07:32:21.301Z,5571.00
2023-05-19T07:33:21.159Z,5381.00
2023-05-19T07:34:21.152Z,5302.00
2023-05-19T07:35:21.178Z,5287.00
2023-05-19T07:36:21.141Z,5236.00
2023-05-19T07:37:21.133Z,5168.00
2023-05-19T07:38:21.137Z,5208.00
2023-05-19T07:39:21.209Z,5120.00
2023-05-19T07:40:21.123Z,5111.00
2023-05-19T07:41:21.094Z,5070.00
2023-05-19T07:42:21.119Z,5046.00
2023-05-19T07:43:21.078Z,5322.00
2023-05-19T07:44:21.082Z,5533.00
2023-05-19T07:45:21.080Z,5698.00
2023-05-19T07:46:21.129Z,5731.00
2023-05-19T07:48:13.668Z,500.00
2023-05-19T07:49:13.584Z,500.00
2023-05-19T07:50:13.611Z,500.00
2023-05-19T07:51:13.585Z,500.00
2023-05-19T07:52:13.549Z,500.00
2023-05-19T07:53:13.557Z,465.00
2023-05-19T07:54:13.561Z,400.00
2023-05-19T07:55:13.549Z,400.00
2023-05-19T07:56:13.552Z,400.00
2023-05-19T07:57:13.539Z,401.00
2023-05-19T07:58:13.518Z,561.00
2023-05-19T07:59:13.534Z,1008.00
2023-05-19T08:00:13.531Z,1503.00
2023-05-19T08:01:13.517Z,1391.00
2023-05-19T08:02:13.503Z,1024.00
2023-05-19T08:03:13.800Z,681.00
2023-05-19T08:04:13.590Z,538.00
2023-05-19T08:05:13.536Z,605.00
2023-05-19T08:06:13.482Z,744.00
2023-05-19T08:07:13.439Z,738.00
2023-05-19T08:08:13.451Z,687.00
2023-05-19T08:09:13.455Z,617.00
2023-05-19T08:10:13.452Z,657.00
2023-05-19T08:11:13.440Z,1389.00
2023-05-19T08:12:13.426Z,1481.00
2023-05-19T08:13:13.434Z,1239.00
2023-05-19T08:14:13.437Z,1145.00
2023-05-19T08:15:13.381Z,1100.00
2023-05-19T08:16:13.442Z,1410.00
2023-05-19T08:17:13.368Z,1302.00
2023-05-19T08:18:13.509Z,1207.00
2023-05-19T08:19:13.499Z,892.00
2023-05-19T08:20:13.426Z,1152.00
2023-05-19T08:21:13.517Z,995.00
2023-05-19T08:22:13.616Z,1722.00
2023-05-19T08:23:13.590Z,1838.00
2023-05-19T08:24:13.580Z,1432.00
2023-05-19T08:25:13.654Z,1070.00
2023-05-19T08:26:14.270Z,828.00
2023-05-19T08:27:13.705Z,654.00
2023-05-19T08:28:13.733Z,559.00
2023-05-19T08:29:13.788Z,565.00
2023-05-19T08:30:13.799Z,575.00
2023-05-19T08:31:13.868Z,486.00
2023-05-19T08:32:13.838Z,650.00
2023-05-19T08:33:13.906Z,667.00
2023-05-19T08:34:13.902Z,511.00
2023-05-19T08:35:13.910Z,446.00
2023-05-19T08:36:13.920Z,508.00
2023-05-19T08:37:13.973Z,412.00
2023-05-19T08:38:14.042Z,400.00
2023-05-19T08:39:14.066Z,433.00
2023-05-19T08:40:14.115Z,499.00
2023-05-19T08:41:14.136Z,806.00
2023-05-19T08:42:14.155Z,1057.00
2023-05-19T08:43:14.217Z,1429.00
2023-05-19T08:44:14.996Z,1190.00
2023-05-19T08:45:14.242Z,1145.00
2023-05-19T08:46:14.262Z,852.00
2023-05-19T08:47:14.305Z,645.00
2023-05-19T08:48:14.370Z,660.00
2023-05-19T08:49:14.363Z,1285.00
2023-05-19T08:50:14.368Z,1525.00
2023-05-19T08:51:14.416Z,1142.00
2023-05-19T08:52:14.415Z,918.00
2023-05-19T08:54:15.464Z,806.00
2023-05-19T08:55:14.467Z,625.00
2023-05-19T08:56:14.450Z,579.00
2023-05-19T08:57:14.480Z,1066.00
2023-05-19T08:58:14.428Z,862.00
2023-05-19T08:59:14.414Z,637.00
2023-05-19T09:00:14.434Z,545.00
2023-05-19T09:01:14.498Z,581.00
2023-05-19T09:02:14.398Z,660.00
2023-05-19T09:04:14.479Z,603.00
2023-05-19T09:05:14.414Z,497.00
2023-05-19T09:06:14.427Z,500.00
2023-05-19T09:07:14.365Z,522.00
2023-05-19T09:08:14.382Z,563.00
2023-05-19T09:09:14.334Z,635.00
2023-05-19T09:10:14.370Z,590.00
2023-05-19T09:11:14.356Z,400.00
2023-05-19T09:12:14.352Z,428.00
2023-05-19T09:13:14.359Z,445.00
2023-05-19T09:14:14.328Z,501.00
2023-05-19T09:15:14.323Z,469.00
2023-05-19T09:16:14.365Z,412.00
2023-05-19T09:17:14.300Z,456.00
2023-05-19T09:18:14.317Z,500.00
2023-05-19T09:19:14.323Z,500.00
2023-05-19T09:20:14.313Z,574.00
2023-05-19T09:21:14.307Z,1522.00
2023-05-19T09:22:14.297Z,2807.00
2023-05-19T09:23:14.301Z,2166.00
2023-05-19T09:24:14.293Z,1685.00
2023-05-19T09:25:14.234Z,1433.00
2023-05-19T09:26:14.294Z,1360.00
2023-05-19T09:27:14.268Z,1317.00
2023-05-19T09:28:14.241Z,1290.00
2023-05-19T09:29:14.290Z,1266.00
2023-05-19T09:30:14.263Z,1410.00
2023-05-19T09:31:14.211Z,1443.00
2023-05-19T09:32:14.255Z,1426.00
2023-05-19T09:33:14.309Z,1504.00
2023-05-19T09:34:14.196Z,1151.00
2023-05-19T09:35:14.214Z,848.00
2023-05-19T09:36:14.194Z,928.00
2023-05-19T09:37:14.184Z,1053.00
2023-05-19T09:38:14.192Z,939.00
2023-05-19T09:39:14.164Z,659.00
2023-05-19T09:40:14.177Z,613.00
2023-05-19T09:41:14.195Z,571.00
2023-05-19T09:42:14.145Z,542.00
2023-05-19T09:43:14.140Z,718.00
2023-05-19T09:44:14.166Z,678.00
2023-05-19T09:45:14.141Z,646.00
2023-05-19T09:46:14.869Z,635.00
2023-05-19T09:47:14.113Z,639.00
2023-05-19T09:48:14.115Z,666.00
2023-05-19T09:49:14.150Z,716.00
2023-05-19T09:50:14.146Z,791.00
2023-05-19T09:51:14.087Z,789.00
2023-05-19T09:52:14.120Z,955.00
2023-05-19T09:53:14.112Z,1025.00
2023-05-19T09:54:14.107Z,1168.00
2023-05-19T09:55:14.063Z,1613.00
2023-05-19T09:56:14.078Z,1452.00
2023-05-19T09:57:14.078Z,1216.00
2023-05-19T09:58:14.076Z,1262.00
2023-05-19T09:59:14.049Z,1692.00
2023-05-19T10:00:14.106Z,1280.00
2023-05-19T10:01:14.156Z,959.00
2023-05-19T10:02:14.166Z,1133.00
2023-05-19T10:03:14.231Z,990.00
2023-05-19T10:04:14.226Z,840.00
2023-05-19T10:05:14.386Z,1281.00
2023-05-19T10:06:14.265Z,1454.00
2023-05-19T10:07:14.348Z,1414.00
2023-05-19T10:08:14.338Z,1427.00
2023-05-19T10:09:14.380Z,1018.00
2023-05-19T10:10:14.417Z,775.00
2023-05-19T10:11:14.444Z,567.00
2023-05-19T10:12:14.479Z,511.00
2023-05-19T10:13:14.496Z,495.00
2023-05-19T10:14:14.487Z,500.00
2023-05-19T10:15:14.536Z,500.00
2023-05-19T10:16:14.609Z,501.00
2023-05-19T10:17:14.572Z,553.00
2023-05-19T10:18:14.671Z,548.00
2023-05-19T10:19:14.761Z,601.00
2023-05-19T10:20:14.705Z,802.00
2023-05-19T10:21:14.741Z,804.00
2023-05-19T10:22:14.766Z,1094.00
2023-05-19T10:23:14.788Z,1258.00
2023-05-19T10:24:14.862Z,987.00
2023-05-19T10:25:14.867Z,871.00
2023-05-19T10:26:14.947Z,801.00
2023-05-19T10:27:14.951Z,872.00
2023-05-19T10:28:15.018Z,1096.00
2023-05-19T10:29:15.029Z,1062.00
2023-05-19T10:30:16.342Z,1102.00
2023-05-19T10:31:15.078Z,1113.00
2023-05-19T10:32:15.092Z,789.00
2023-05-19T10:33:15.123Z,738.00
2023-05-19T10:34:15.143Z,739.00
2023-05-19T10:35:15.141Z,676.00
2023-05-19T10:36:15.177Z,598.00
2023-05-19T10:37:15.200Z,615.00
2023-05-19T10:38:15.264Z,837.00
2023-05-19T10:39:15.278Z,734.00
2023-05-19T10:40:15.300Z,816.00
2023-05-19T10:41:15.305Z,747.00
2023-05-19T10:42:15.326Z,745.00
2023-05-19T10:43:15.346Z,857.00
2023-05-19T10:44:15.394Z,736.00
2023-05-19T10:45:15.396Z,864.00
2023-05-19T10:46:15.451Z,745.00
2023-05-19T10:47:15.521Z,591.00
2023-05-19T10:48:15.525Z,520.00
2023-05-19T10:49:15.538Z,468.00
2023-05-19T10:50:15.759Z,530.00
2023-05-19T10:51:15.643Z,499.00
2023-05-19T10:52:15.661Z,487.00
2023-05-19T10:53:15.702Z,498.00
2023-05-19T10:54:15.704Z,500.00
2023-05-19T10:55:15.790Z,566.00
2023-05-19T10:56:15.783Z,627.00
2023-05-19T10:57:15.846Z,644.00
2023-05-19T10:58:15.896Z,707.00
2023-05-19T10:59:15.907Z,948.00
2023-05-19T11:00:15.941Z,855.00
2023-05-19T11:01:16.040Z,666.00
2023-05-19T11:02:16.099Z,744.00
2023-05-19T11:03:16.123Z,720.00
2023-05-19T11:04:16.126Z,700.00
2023-05-19T11:05:16.103Z,696.00
2023-05-19T11:06:16.153Z,897.00
2023-05-19T11:07:16.168Z,788.00
2023-05-19T11:08:16.200Z,603.00
2023-05-19T11:09:16.213Z,583.00
2023-05-19T11:10:16.283Z,609.00
2023-05-19T11:11:16.318Z,591.00
2023-05-19T11:12:16.333Z,590.00
2023-05-19T11:13:16.359Z,635.00
2023-05-19T11:14:16.417Z,647.00
2023-05-19T11:15:16.644Z,921.00
2023-05-19T11:16:16.431Z,991.00
2023-05-19T11:17:16.479Z,957.00
2023-05-19T11:18:16.518Z,995.00
2023-05-19T11:19:16.547Z,682.00
2023-05-19T11:20:16.601Z,588.00
2023-05-19T11:21:16.693Z,526.00
2023-05-19T11:22:16.644Z,536.00
2023-05-19T11:23:16.729Z,542.00
2023-05-19T11:24:16.737Z,484.00
2023-05-19T11:25:16.739Z,659.00
2023-05-19T11:26:16.791Z,688.00
2023-05-19T11:27:16.779Z,499.00
2023-05-19T11:28:16.839Z,546.00
2023-05-19T11:29:16.858Z,530.00
2023-05-19T11:30:16.903Z,535.00
2023-05-19T11:31:16.940Z,624.00
2023-05-19T11:32:16.971Z,438.00
2023-05-19T11:33:17.001Z,400.00
2023-05-19T11:34:16.993Z,400.00
2023-05-19T11:35:17.038Z,417.00
2023-05-19T11:36:17.064Z,526.00
2023-05-19T11:37:17.079Z,522.00
2023-05-19T11:38:17.134Z,501.00
2023-05-19T11:39:17.136Z,566.00
2023-05-19T11:40:17.201Z,568.00
2023-05-19T11:41:18.906Z,829.00
2023-05-19T11:42:17.171Z,960.00
2023-05-19T11:43:17.241Z,1036.00
2023-05-19T11:44:17.197Z,1320.00
2023-05-19T11:45:17.157Z,1646.00
2023-05-19T11:46:17.167Z,1724.00
2023-05-19T11:47:17.181Z,1865.00
2023-05-19T11:48:17.389Z,2082.00
2023-05-19T11:49:17.150Z,1769.00
2023-05-19T11:50:17.169Z,1786.00
2023-05-19T11:51:17.174Z,1785.00
2023-05-19T11:52:17.118Z,1421.00
2023-05-19T11:53:17.108Z,1162.00
2023-05-19T11:54:17.118Z,963.00
2023-05-19T11:55:17.103Z,929.00
2023-05-19T11:56:17.100Z,615.00
2023-05-19T11:57:17.205Z,641.00
2023-05-19T11:58:17.405Z,629.00
2023-05-19T11:59:17.077Z,618.00
2023-05-19T12:00:17.057Z,545.00
2023-05-19T12:01:17.087Z,619.00
2023-05-19T12:02:17.113Z,578.00
2023-05-19T12:03:17.191Z,555.00
2023-05-19T12:04:17.056Z,595.00
2023-05-19T12:05:17.134Z,607.00
2023-05-19T12:06:17.086Z,645.00
2023-05-19T12:07:17.009Z,822.00
2023-05-19T12:08:17.020Z,554.00
2023-05-19T12:09:17.039Z,541.00
2023-05-19T12:10:17.028Z,551.00
2023-05-19T12:11:18.127Z,571.00
2023-05-19T12:12:17.133Z,458.00
2023-05-19T12:13:16.999Z,487.00
2023-05-19T12:14:17.016Z,581.00